createdAt,value
2022-12-03T00:02:16.205Z,56.60
2022-12-03T00:04:44.762Z,54.60
2022-12-03T00:07:27.435Z,57.70
2022-12-03T00:09:55.853Z,55.20
2022-12-03T00:12:24.150Z,54.10
2022-12-03T00:14:52.978Z,59.20
2022-12-03T00:17:21.337Z,51.00
2022-12-03T00:19:50.431Z,49.50
2022-12-03T00:22:18.758Z,53.00
2022-12-03T00:24:47.220Z,51.80
2022-12-03T00:27:15.544Z,51.20
2022-12-03T00:29:43.905Z,51.40
2022-12-03T00:32:12.556Z,47.50
2022-12-03T00:34:41.026Z,52.90
2022-12-03T00:37:09.378Z,51.20
2022-12-03T00:39:37.650Z,52.70
2022-12-03T00:42:06.134Z,42.10
2022-12-03T00:44:34.452Z,51.00
2022-12-03T00:47:02.975Z,46.50
2022-12-03T00:49:31.438Z,44.50
2022-12-03T00:51:59.789Z,52.20
2022-12-03T00:54:31.867Z,48.10
2022-12-03T00:57:00.768Z,49.10
2022-12-03T00:59:29.173Z,46.30
2022-12-03T01:01:57.460Z,50.90
2022-12-03T01:04:26.183Z,47.30
2022-12-03T01:06:54.564Z,51.20
2022-12-03T01:09:22.965Z,52.80
2022-12-03T01:11:51.236Z,46.90
2022-12-03T01:14:20.519Z,49.40
2022-12-03T01:16:49.221Z,45.50
2022-12-03T01:19:19.712Z,46.40
2022-12-03T01:21:50.480Z,49.20
2022-12-03T01:24:19.745Z,39.60
2022-12-03T01:26:48.207Z,37.60
2022-12-03T01:29:16.563Z,43.80
2022-12-03T01:32:03.544Z,45.50
2022-12-03T01:34:32.005Z,37.30
2022-12-03T01:37:00.343Z,44.00
2022-12-03T01:39:28.581Z,49.90
2022-12-03T01:41:59.089Z,46.00
2022-12-03T01:44:33.086Z,45.20
2022-12-03T01:50:01.715Z,38.80
2022-12-03T01:52:34.828Z,40.20
2022-12-03T01:55:07.923Z,48.50
2022-12-03T01:57:46.281Z,47.30
2022-12-03T02:00:17.696Z,42.90
2022-12-03T02:02:48.589Z,44.40
2022-12-03T02:05:29.226Z,44.70
2022-12-03T02:08:34.957Z,41.30
2022-12-03T02:11:06.243Z,43.80
2022-12-03T02:13:34.977Z,51.20
2022-12-03T02:16:04.382Z,48.70
2022-12-03T02:18:32.981Z,45.40
2022-12-03T02:21:24.144Z,51.30
2022-12-03T02:23:52.416Z,49.60
2022-12-03T02:26:20.969Z,51.70
2022-12-03T02:28:49.475Z,47.80
2022-12-03T02:31:17.874Z,47.80
2022-12-03T02:33:46.221Z,39.90
2022-12-03T02:36:14.587Z,51.60
2022-12-03T02:38:45.723Z,47.30
2022-12-03T02:41:37.578Z,41.70
2022-12-03T02:44:07.495Z,46.20
2022-12-03T02:46:36.724Z,49.80
2022-12-03T02:49:06.469Z,41.00
2022-12-03T02:51:35.318Z,50.00
2022-12-03T02:54:04.306Z,45.20
2022-12-03T02:56:33.566Z,38.10
2022-12-03T02:59:05.488Z,44.80
2022-12-03T03:01:35.178Z,44.80
2022-12-03T03:04:04.766Z,52.60
2022-12-03T03:06:33.862Z,42.80
2022-12-03T03:09:21.192Z,37.00
2022-12-03T03:11:49.566Z,47.50
2022-12-03T03:14:17.918Z,50.20
2022-12-03T03:16:46.379Z,49.60
2022-12-03T03:19:14.817Z,44.70
2022-12-03T03:21:43.143Z,43.10
2022-12-03T03:24:11.430Z,47.10
2022-12-03T03:26:39.802Z,41.60
2022-12-03T03:29:08.179Z,41.80
2022-12-03T03:31:37.007Z,49.10
2022-12-03T03:34:05.631Z,46.80
2022-12-03T03:36:34.666Z,52.30
2022-12-03T03:39:05.513Z,45.20
2022-12-03T03:41:35.062Z,47.80
2022-12-03T03:44:06.468Z,47.60
2022-12-03T03:46:36.223Z,48.20
2022-12-03T03:49:06.200Z,54.50
2022-12-03T03:51:36.631Z,52.00
2022-12-03T03:54:06.198Z,49.10
2022-12-03T03:56:35.026Z,45.70
2022-12-03T03:59:04.189Z,52.70
2022-12-03T04:01:33.294Z,48.90
2022-12-03T04:04:02.318Z,60.10
2022-12-03T04:06:30.617Z,55.40
2022-12-03T04:09:00.150Z,47.10
2022-12-03T04:11:47.009Z,54.40
2022-12-03T04:14:15.400Z,50.10
2022-12-03T04:16:43.743Z,47.00
2022-12-03T04:19:12.191Z,47.90
2022-12-03T04:21:58.696Z,47.90
2022-12-03T04:24:27.076Z,43.70
2022-12-03T04:27:14.181Z,44.50
2022-12-03T04:29:42.478Z,40.80
2022-12-03T04:32:29.132Z,40.00
2022-12-03T04:35:15.985Z,42.40
2022-12-03T04:37:44.335Z,39.30
2022-12-03T04:40:31.779Z,41.70
2022-12-03T04:43:00.119Z,44.70
2022-12-03T04:45:28.442Z,38.30
2022-12-03T04:47:56.678Z,40.70
2022-12-03T04:50:25.081Z,39.80
2022-12-03T04:52:53.342Z,49.30
2022-12-03T04:55:21.619Z,38.10
2022-12-03T04:57:49.885Z,46.10
2022-12-03T05:00:18.510Z,37.80
2022-12-03T05:02:46.995Z,39.40
2022-12-03T05:05:15.646Z,41.10
2022-12-03T05:08:08.788Z,43.90
2022-12-03T05:10:37.165Z,37.50
2022-12-03T05:13:05.487Z,42.20
2022-12-03T05:15:33.759Z,33.70
2022-12-03T05:18:02.102Z,37.60
2022-12-03T05:20:43.853Z,40.80
2022-12-03T05:23:15.015Z,37.60
2022-12-03T05:25:43.386Z,43.90
2022-12-03T05:28:11.760Z,39.60
2022-12-03T05:30:40.197Z,41.50
2022-12-03T05:33:08.548Z,41.50
2022-12-03T05:35:36.818Z,43.50
2022-12-03T05:38:05.183Z,41.20
2022-12-03T05:40:33.539Z,43.90
2022-12-03T05:43:02.222Z,41.00
2022-12-03T05:45:36.179Z,53.60
2022-12-03T05:50:36.538Z,38.40
2022-12-03T05:53:05.064Z,42.80
2022-12-03T05:55:33.939Z,41.00
2022-12-03T05:58:02.307Z,46.00
2022-12-03T06:00:39.047Z,39.20
2022-12-03T06:03:11.120Z,48.30
2022-12-03T06:05:39.635Z,49.00
2022-12-03T06:08:08.121Z,43.40
2022-12-03T06:10:36.570Z,48.90
2022-12-03T06:13:04.880Z,40.50
2022-12-03T06:15:35.336Z,45.90
2022-12-03T06:18:07.182Z,44.30
2022-12-03T06:20:35.505Z,43.80
2022-12-03T06:23:03.861Z,45.80
2022-12-03T06:25:32.173Z,49.30
2022-12-03T06:28:00.591Z,34.90
2022-12-03T06:30:28.902Z,33.00
2022-12-03T06:32:57.203Z,40.80
2022-12-03T06:35:25.572Z,43.00
2022-12-03T06:37:53.895Z,41.40
2022-12-03T06:40:22.240Z,41.80
2022-12-03T06:42:50.527Z,39.20
2022-12-03T06:45:18.925Z,40.10
2022-12-03T06:47:47.264Z,47.30
2022-12-03T06:50:15.672Z,41.10
2022-12-03T06:52:43.911Z,44.50
2022-12-03T06:55:12.281Z,40.30
2022-12-03T06:57:40.562Z,46.10
2022-12-03T07:00:09.854Z,37.50
2022-12-03T07:02:38.281Z,40.00
2022-12-03T07:05:07.890Z,43.90
2022-12-03T07:07:36.374Z,36.30
2022-12-03T07:10:05.381Z,41.10
2022-12-03T07:12:34.490Z,37.90
2022-12-03T07:15:02.889Z,43.00
2022-12-03T07:17:31.306Z,42.20
2022-12-03T07:19:59.654Z,36.10
2022-12-03T07:22:27.969Z,40.70
2022-12-03T07:24:56.469Z,42.00
2022-12-03T07:27:25.142Z,37.20
2022-12-03T07:29:53.599Z,35.50
2022-12-03T07:32:35.626Z,42.40
2022-12-03T07:35:17.671Z,44.60
2022-12-03T07:38:00.216Z,41.70
2022-12-03T07:40:27.364Z,30.50
2022-12-03T07:42:54.422Z,41.80
2022-12-03T07:45:22.803Z,41.20
2022-12-03T07:48:04.883Z,33.40
2022-12-03T07:50:33.230Z,46.70
2022-12-03T07:53:01.568Z,44.30
2022-12-03T07:55:29.907Z,40.10
2022-12-03T07:57:58.335Z,42.50
2022-12-03T08:00:26.908Z,36.40
2022-12-03T08:02:55.322Z,36.50
2022-12-03T08:05:23.916Z,38.00
2022-12-03T08:07:52.277Z,44.70
2022-12-03T08:10:20.763Z,47.00
2022-12-03T08:12:49.122Z,47.80
2022-12-03T08:15:24.468Z,41.80
2022-12-03T08:17:59.036Z,38.80
2022-12-03T08:20:34.605Z,38.90
2022-12-03T08:23:07.343Z,42.10
2022-12-03T08:25:35.598Z,41.20
2022-12-03T08:28:13.684Z,41.50
2022-12-03T08:30:44.366Z,37.90
2022-12-03T08:33:28.286Z,38.60
2022-12-03T08:35:56.760Z,37.40
2022-12-03T08:38:25.299Z,39.00
2022-12-03T08:40:55.647Z,40.20
2022-12-03T08:43:26.124Z,39.70
2022-12-03T08:45:56.234Z,37.10
2022-12-03T08:48:33.277Z,41.50
2022-12-03T08:51:09.514Z,42.80
2022-12-03T08:53:47.978Z,43.40
2022-12-03T08:56:28.571Z,46.60
2022-12-03T08:59:03.277Z,44.30
2022-12-03T09:01:33.220Z,40.90
2022-12-03T09:04:31.068Z,41.30
2022-12-03T09:07:02.484Z,41.90
2022-12-03T09:09:31.294Z,50.60
2022-12-03T09:11:59.759Z,48.50
2022-12-03T09:14:29.282Z,45.10
2022-12-03T09:16:57.817Z,44.90
2022-12-03T09:19:27.839Z,38.90
2022-12-03T09:21:56.210Z,49.00
2022-12-03T09:24:24.658Z,42.40
2022-12-03T09:26:53.039Z,42.00
2022-12-03T09:29:21.410Z,40.50
2022-12-03T09:32:03.708Z,41.50
2022-12-03T09:34:30.800Z,42.80
2022-12-03T09:36:59.197Z,39.70
2022-12-03T09:39:27.799Z,49.70
2022-12-03T09:41:56.639Z,43.60
2022-12-03T09:44:25.056Z,47.50
2022-12-03T09:46:53.427Z,45.80
2022-12-03T09:49:22.028Z,48.80
2022-12-03T09:51:50.370Z,47.60
2022-12-03T09:54:24.843Z,48.50
2022-12-03T09:56:55.272Z,44.20
2022-12-03T09:59:27.683Z,46.10
2022-12-03T10:01:56.303Z,44.90
2022-12-03T10:04:25.347Z,49.50
2022-12-03T10:06:54.406Z,46.70
2022-12-03T10:09:26.022Z,48.70
2022-12-03T10:11:56.828Z,49.20
2022-12-03T10:14:25.495Z,44.00
2022-12-03T10:16:54.933Z,44.90
2022-12-03T10:19:27.895Z,50.70
2022-12-03T10:21:56.224Z,45.30
2022-12-03T10:24:36.434Z,50.60
2022-12-03T10:27:29.746Z,50.00
2022-12-03T10:30:02.985Z,52.60
2022-12-03T10:32:43.514Z,57.50
2022-12-03T10:35:15.547Z,49.00
2022-12-03T10:38:01.679Z,68.30
2022-12-03T10:40:31.541Z,50.80
2022-12-03T10:43:23.308Z,47.20
2022-12-03T10:46:11.993Z,49.20
2022-12-03T10:48:41.104Z,54.90
2022-12-03T10:51:22.529Z,53.40
2022-12-03T10:53:51.288Z,53.70
2022-12-03T10:56:26.545Z,50.90
2022-12-03T10:58:55.553Z,54.10
2022-12-03T11:01:25.857Z,53.30
2022-12-03T11:04:01.617Z,54.50
2022-12-03T11:06:32.064Z,59.50
2022-12-03T11:09:05.430Z,54.00
2022-12-03T11:11:36.818Z,52.70
2022-12-03T11:14:05.772Z,54.80
2022-12-03T11:16:39.928Z,54.50
2022-12-03T11:19:18.220Z,55.60
2022-12-03T11:22:05.228Z,54.00
2022-12-03T11:24:36.082Z,47.10
2022-12-03T11:27:04.260Z,59.20
2022-12-03T11:29:52.622Z,53.10
2022-12-03T11:32:38.608Z,55.40
2022-12-03T11:35:26.284Z,57.20
2022-12-03T11:37:54.773Z,53.00
2022-12-03T11:40:23.059Z,53.50
2022-12-03T11:42:51.439Z,51.10
2022-12-03T11:45:28.566Z,57.00
2022-12-03T11:47:59.595Z,59.40
2022-12-03T11:50:39.406Z,56.70
2022-12-03T11:53:17.834Z,52.30
2022-12-03T11:55:52.505Z,55.90
2022-12-03T11:58:30.144Z,57.00
2022-12-03T12:01:01.017Z,58.70
2022-12-03T12:03:33.950Z,53.40
2022-12-03T12:06:12.284Z,42.40
2022-12-03T12:09:04.129Z,50.70
2022-12-03T12:11:34.797Z,54.30
2022-12-03T12:14:05.007Z,64.80
2022-12-03T12:16:52.689Z,61.20
2022-12-03T12:19:31.571Z,60.10
2022-12-03T12:22:18.441Z,61.20
2022-12-03T12:25:27.189Z,57.20
2022-12-03T12:27:55.839Z,63.90
2022-12-03T12:30:24.361Z,61.90
2022-12-03T12:33:02.105Z,54.50
2022-12-03T12:35:33.072Z,58.00
2022-12-03T12:38:11.655Z,61.20
2022-12-03T12:40:44.931Z,59.10
2022-12-03T12:43:23.812Z,67.70
2022-12-03T12:45:55.318Z,69.90
2022-12-03T12:48:27.543Z,65.60
2022-12-03T12:51:02.138Z,62.20
2022-12-03T12:53:35.743Z,56.30
2022-12-03T12:56:27.474Z,69.70
2022-12-03T12:58:59.657Z,68.30
2022-12-03T13:01:32.487Z,66.10
2022-12-03T13:04:00.890Z,66.80
2022-12-03T13:06:31.482Z,67.70
2022-12-03T13:09:01.451Z,74.10
2022-12-03T13:11:37.450Z,74.80
2022-12-03T13:14:24.727Z,70.40
2022-12-03T13:16:56.400Z,72.60
2022-12-03T13:19:27.597Z,69.50
2022-12-03T13:21:58.397Z,66.90
2022-12-03T13:24:36.858Z,63.60
2022-12-03T13:27:14.101Z,73.40
2022-12-03T13:29:42.850Z,69.40
2022-12-03T13:32:19.295Z,61.40
2022-12-03T13:34:50.716Z,74.60
2022-12-03T13:37:28.527Z,70.60
2022-12-03T13:39:58.046Z,77.60
2022-12-03T13:42:39.939Z,72.50
2022-12-03T13:45:14.148Z,73.70
2022-12-03T13:47:43.730Z,80.00
2022-12-03T13:50:45.171Z,70.10
2022-12-03T13:53:13.406Z,77.10
2022-12-03T13:55:47.369Z,74.10
2022-12-03T14:00:44.129Z,67.90
2022-12-03T14:03:12.652Z,70.70
2022-12-03T14:05:41.009Z,67.50
2022-12-03T14:08:09.481Z,77.20
2022-12-03T14:10:37.881Z,70.60
2022-12-03T14:13:06.215Z,79.10
2022-12-03T14:15:34.521Z,80.50
2022-12-03T14:18:02.935Z,76.20
2022-12-03T14:20:31.276Z,78.10
2022-12-03T14:22:59.811Z,76.10
2022-12-03T14:25:28.531Z,74.10
2022-12-03T14:27:56.899Z,76.80
2022-12-03T14:30:25.202Z,80.20
2022-12-03T14:32:53.533Z,69.00
2022-12-03T14:35:21.891Z,75.90
2022-12-03T14:37:50.258Z,78.70
2022-12-03T14:40:21.740Z,69.10
2022-12-03T14:42:50.743Z,81.60
2022-12-03T14:45:20.569Z,77.90
2022-12-03T14:47:48.925Z,79.90
2022-12-03T14:50:18.676Z,78.10
2022-12-03T14:52:47.217Z,74.10
2022-12-03T14:55:15.518Z,70.80
2022-12-03T14:57:44.029Z,67.50
2022-12-03T15:00:13.129Z,73.00
2022-12-03T15:02:41.619Z,73.60
2022-12-03T15:05:10.484Z,76.40
2022-12-03T15:07:40.911Z,74.30
2022-12-03T15:10:09.693Z,72.90
2022-12-03T15:12:38.038Z,79.60
2022-12-03T15:15:07.015Z,72.50
2022-12-03T15:17:35.397Z,71.70
2022-12-03T15:20:04.426Z,86.40
2022-12-03T15:22:32.831Z,221.50
2022-12-03T15:25:02.955Z,89.50
2022-12-03T15:27:31.449Z,80.50
2022-12-03T15:29:59.813Z,75.60
2022-12-03T15:32:28.588Z,75.30
2022-12-03T15:34:57.833Z,81.90
2022-12-03T15:37:28.325Z,73.80
2022-12-03T15:39:57.386Z,75.80
2022-12-03T15:42:26.147Z,85.90
2022-12-03T15:44:54.492Z,97.30
2022-12-03T15:47:24.030Z,79.80
2022-12-03T15:49:53.459Z,92.70
2022-12-03T15:52:22.281Z,88.70
2022-12-03T15:54:50.750Z,75.50
2022-12-03T15:57:19.409Z,79.90
2022-12-03T15:59:47.725Z,75.40
2022-12-03T16:02:16.686Z,74.60
2022-12-03T16:04:45.980Z,86.00
2022-12-03T16:07:17.663Z,74.20
2022-12-03T16:09:47.071Z,77.10
2022-12-03T16:12:16.007Z,82.60
2022-12-03T16:14:44.664Z,69.30
2022-12-03T16:17:14.093Z,80.60
2022-12-03T16:19:43.198Z,76.20
2022-12-03T16:22:12.959Z,76.60
2022-12-03T16:24:41.339Z,79.10
2022-12-03T16:27:09.769Z,79.40
2022-12-03T16:29:39.093Z,80.20
2022-12-03T16:32:10.286Z,72.00
2022-12-03T16:34:38.948Z,79.40
2022-12-03T16:37:09.061Z,74.90
2022-12-03T16:39:38.039Z,73.50
2022-12-03T16:42:10.418Z,78.60
2022-12-03T16:45:04.834Z,66.30
2022-12-03T16:47:34.767Z,71.60
2022-12-03T16:50:09.128Z,77.10
2022-12-03T16:52:38.689Z,70.60
2022-12-03T16:55:07.863Z,77.60
2022-12-03T16:57:37.275Z,85.90
2022-12-03T17:00:07.021Z,92.10
2022-12-03T17:02:35.677Z,78.80
2022-12-03T17:05:05.271Z,77.70
2022-12-03T17:07:33.711Z,80.50
2022-12-03T17:10:02.710Z,78.70
2022-12-03T17:13:00.768Z,74.50
2022-12-03T17:15:19.462Z,71.80
2022-12-03T17:17:47.875Z,76.80
2022-12-03T17:20:17.751Z,76.60
2022-12-03T17:22:46.099Z,79.30
2022-12-03T17:25:14.438Z,80.10
2022-12-03T17:27:45.578Z,81.50
2022-12-03T17:30:15.047Z,80.80
2022-12-03T17:32:43.746Z,79.50
2022-12-03T17:35:12.504Z,81.10
2022-12-03T17:37:40.893Z,79.00
2022-12-03T17:40:13.849Z,80.00
2022-12-03T17:42:42.263Z,81.40
2022-12-03T17:45:11.249Z,79.60
2022-12-03T17:47:40.364Z,82.00
2022-12-03T17:50:09.214Z,71.20
2022-12-03T17:52:37.503Z,72.40
2022-12-03T17:55:12.889Z,74.80
2022-12-03T17:57:45.928Z,74.50
2022-12-03T18:00:14.536Z,80.10
2022-12-03T18:02:43.403Z,91.30
2022-12-03T18:05:12.234Z,80.10
2022-12-03T18:07:40.851Z,74.60
2022-12-03T18:10:09.818Z,84.90
2022-12-03T18:12:38.604Z,77.70
2022-12-03T18:15:08.268Z,80.00
2022-12-03T18:17:37.460Z,81.90
2022-12-03T18:20:08.103Z,85.40
2022-12-03T18:22:37.007Z,80.10
2022-12-03T18:25:06.920Z,85.70
2022-12-03T18:27:36.091Z,79.20
2022-12-03T18:30:05.619Z,89.50
2022-12-03T18:32:34.479Z,72.70
2022-12-03T18:35:04.702Z,74.40
2022-12-03T18:37:34.572Z,83.40
2022-12-03T18:40:13.139Z,79.20
2022-12-03T18:42:42.369Z,87.70
2022-12-03T18:45:13.258Z,85.40
2022-12-03T18:47:42.779Z,85.40
2022-12-03T18:50:13.588Z,89.40
2022-12-03T18:52:42.764Z,80.20
2022-12-03T18:55:18.584Z,84.80
2022-12-03T18:57:49.225Z,85.20
2022-12-03T19:00:19.149Z,90.00
2022-12-03T19:03:03.755Z,47.40
2022-12-03T19:05:35.745Z,85.90
2022-12-03T19:08:13.270Z,87.60
2022-12-03T19:10:46.603Z,84.40
2022-12-03T19:13:17.070Z,62.50
2022-12-03T19:15:47.340Z,86.80
2022-12-03T19:18:16.414Z,80.60
2022-12-03T19:20:46.037Z,84.30
2022-12-03T19:23:15.012Z,80.50
2022-12-03T19:25:55.777Z,81.80
2022-12-03T19:28:27.296Z,84.30
2022-12-03T19:31:17.978Z,82.80
2022-12-03T19:33:47.930Z,84.60
2022-12-03T19:36:24.867Z,91.90
2022-12-03T19:39:01.469Z,78.60
2022-12-03T19:41:34.270Z,87.20
2022-12-03T19:44:09.268Z,82.90
2022-12-03T19:46:40.181Z,84.50
2022-12-03T19:49:12.991Z,78.60
2022-12-03T19:51:44.600Z,82.00
2022-12-03T19:54:17.165Z,91.20
2022-12-03T19:56:50.559Z,78.30
2022-12-03T19:59:22.421Z,86.20
2022-12-03T20:01:53.858Z,90.00
2022-12-03T20:04:23.190Z,84.90
2022-12-03T20:06:52.282Z,92.70
2022-12-03T20:09:22.862Z,87.00
2022-12-03T20:12:01.571Z,88.90
2022-12-03T20:14:34.661Z,88.40
2022-12-03T20:17:04.444Z,73.50
2022-12-03T20:19:33.928Z,87.10
2022-12-03T20:22:03.219Z,91.40
2022-12-03T20:24:32.967Z,90.90
2022-12-03T20:27:02.337Z,65.80
2022-12-03T20:29:32.880Z,84.90
2022-12-03T20:32:06.201Z,85.80
2022-12-03T20:34:36.876Z,84.00
2022-12-03T20:37:07.136Z,83.90
2022-12-03T20:39:36.798Z,88.30
2022-12-03T20:42:06.299Z,84.00
2022-12-03T20:44:40.274Z,82.80
2022-12-03T20:47:09.375Z,81.30
2022-12-03T20:49:39.935Z,83.80
2022-12-03T20:52:10.255Z,90.20
2022-12-03T20:54:39.398Z,80.90
2022-12-03T20:57:08.244Z,82.20
2022-12-03T20:59:37.919Z,85.90
2022-12-03T21:02:07.192Z,98.70
2022-12-03T21:04:36.707Z,92.20
2022-12-03T21:07:05.485Z,85.20
2022-12-03T21:09:34.444Z,92.40
2022-12-03T21:12:02.926Z,87.10
2022-12-03T21:14:31.296Z,78.00
2022-12-03T21:17:08.433Z,87.50
2022-12-03T21:19:38.724Z,81.90
2022-12-03T21:22:08.765Z,84.50
2022-12-03T21:24:44.456Z,87.50
2022-12-03T21:27:21.191Z,76.70
2022-12-03T21:29:51.837Z,89.70
2022-12-03T21:32:20.910Z,86.20
2022-12-03T21:34:49.179Z,79.40
2022-12-03T21:37:17.962Z,80.50
2022-12-03T21:39:46.332Z,74.90
2022-12-03T21:42:36.106Z,86.10
2022-12-03T21:45:04.056Z,84.10
2022-12-03T21:47:37.314Z,79.80
2022-12-03T21:50:09.751Z,78.80
2022-12-03T21:52:38.293Z,84.40
2022-12-03T21:55:06.988Z,82.40
2022-12-03T21:57:36.927Z,94.60
2022-12-03T22:00:09.745Z,81.10
2022-12-03T22:02:40.527Z,90.90
2022-12-03T22:05:11.488Z,77.90
2022-12-03T22:07:41.007Z,77.00
2022-12-03T22:10:11.666Z,81.00
2022-12-03T22:12:42.241Z,83.20
2022-12-03T22:15:16.724Z,81.10
2022-12-03T22:17:47.888Z,80.90
2022-12-03T22:20:16.526Z,85.90
2022-12-03T22:22:45.198Z,85.50
2022-12-03T22:25:14.144Z,86.30
2022-12-03T22:27:42.568Z,85.50
2022-12-03T22:30:11.225Z,73.40
2022-12-03T22:32:39.699Z,83.90
2022-12-03T22:35:08.525Z,76.70
2022-12-03T22:37:37.042Z,76.90
2022-12-03T22:40:06.601Z,89.10
2022-12-03T22:42:34.984Z,80.10
2022-12-03T22:45:04.134Z,77.60
2022-12-03T22:47:32.466Z,93.10
2022-12-03T22:50:00.783Z,80.00
2022-12-03T22:52:30.344Z,77.90
2022-12-03T22:54:58.648Z,84.40
2022-12-03T22:57:27.032Z,79.00
2022-12-03T22:59:55.613Z,81.00
2022-12-03T23:02:24.313Z,83.00
2022-12-03T23:04:56.032Z,76.20
2022-12-03T23:07:24.320Z,82.00
2022-12-03T23:09:52.973Z,78.90
